sensor_id;sensor_type;location;lat;lon;timestamp;pressure;altitude;pressure_sealevel;temperature;humidity
22605;BME280;11469;49.024;8.246;2023-09-30T00:00:17;101255.38;;;17.59;100.00
22605;BME280;11469;49.024;8.246;2023-09-30T00:02:43;101260.22;;;17.59;100.00
22605;BME280;11469;49.024;8.246;2023-09-30T00:05:08;101256.19;;;17.60;100.00
22605;BME280;11469;49.024;8.246;2023-09-30T00:07:34;101254.16;;;17.61;100.00
22605;BME280;11469;49.024;8.246;2023-09-30T00:10:00;101251.75;;;17.63;100.00
22605;BME280;11469;49.024;8.246;2023-09-30T00:12:26;101256.22;;;17.64;100.00
22605;BME280;11469;49.024;8.246;2023-09-30T00:14:52;101259.06;;;17.64;100.00
22605;BME280;11469;49.024;8.246;2023-09-30T00:17:17;101263.09;;;17.63;100.00
22605;BME280;11469;49.024;8.246;2023-09-30T00:19:43;101267.53;;;17.60;100.00
22605;BME280;11469;49.024;8.246;2023-09-30T00:22:10;101271.19;;;17.61;100.00
22605;BME280;11469;49.024;8.246;2023-09-30T00:24:35;101266.28;;;17.57;100.00
22605;BME280;11469;49.024;8.246;2023-09-30T00:27:00;101264.22;;;17.54;100.00
22605;BME280;11469;49.024;8.246;2023-09-30T00:29:26;101277.97;;;17.52;100.00
22605;BME280;11469;49.024;8.246;2023-09-30T00:31:51;101275.09;;;17.49;100.00
22605;BME280;11469;49.024;8.246;2023-09-30T00:34:17;101281.56;;;17.49;100.00
22605;BME280;11469;49.024;8.246;2023-09-30T00:36:42;101280.38;;;17.50;100.00
22605;BME280;11469;49.024;8.246;2023-09-30T00:39:08;101276.34;;;17.51;100.00
22605;BME280;11469;49.024;8.246;2023-09-30T00:41:35;101271.47;;;17.52;100.00
22605;BME280;11469;49.024;8.246;2023-09-30T00:44:00;101277.13;;;17.48;100.00
22605;BME280;11469;49.024;8.246;2023-09-30T00:46:31;101277.13;;;17.48;100.00
22605;BME280;11469;49.024;8.246;2023-09-30T00:48:59;101276.34;;;17.51;100.00
22605;BME280;11469;49.024;8.246;2023-09-30T00:51:25;101266.63;;;17.52;100.00
22605;BME280;11469;49.024;8.246;2023-09-30T00:53:52;101260.97;;;17.52;100.00
22605;BME280;11469;49.024;8.246;2023-09-30T00:56:19;101265.44;;;17.53;100.00
22605;BME280;11469;49.024;8.246;2023-09-30T00:58:46;101263.78;;;17.52;100.00
22605;BME280;11469;49.024;8.246;2023-09-30T01:01:13;101274.31;;;17.52;100.00
22605;BME280;11469;49.024;8.246;2023-09-30T01:03:38;101279.16;;;17.51;100.00
22605;BME280;11469;49.024;8.246;2023-09-30T01:06:04;101280.38;;;17.50;100.00
22605;BME280;11469;49.024;8.246;2023-09-30T01:08:31;101281.56;;;17.49;100.00
22605;BME280;11469;49.024;8.246;2023-09-30T01:10:58;101282.00;;;17.48;100.00
22605;BME280;11469;49.024;8.246;2023-09-30T01:13:31;101271.44;;;17.45;100.00
22605;BME280;11469;49.024;8.246;2023-09-30T01:15:57;101283.97;;;17.44;100.00
22605;BME280;11469;49.024;8.246;2023-09-30T01:18:22;101283.53;;;17.42;100.00
22605;BME280;11469;49.024;8.246;2023-09-30T01:20:48;101278.56;;;17.32;100.00
22605;BME280;11469;49.024;8.246;2023-09-30T01:23:15;101273.72;;;17.32;100.00
22605;BME280;11469;49.024;8.246;2023-09-30T01:25:40;101263.97;;;17.30;100.00
22605;BME280;11469;49.024;8.246;2023-09-30T01:28:09;101262.06;;;17.41;100.00
22605;BME280;11469;49.024;8.246;2023-09-30T01:30:35;101274.06;;;17.27;100.00
22605;BME280;11469;49.024;8.246;2023-09-30T01:33:00;101272.72;;;17.17;100.00
22605;BME280;11469;49.024;8.246;2023-09-30T01:35:26;101282.38;;;17.13;100.00
22605;BME280;11469;49.024;8.246;2023-09-30T01:37:52;101286.00;;;17.13;100.00
22605;BME280;11469;49.024;8.246;2023-09-30T01:40:17;101287.59;;;17.11;100.00
22605;BME280;11469;49.024;8.246;2023-09-30T01:42:43;101279.81;;;17.04;100.00
22605;BME280;11469;49.024;8.246;2023-09-30T01:45:09;101286.19;;;16.94;100.00
22605;BME280;11469;49.024;8.246;2023-09-30T01:47:35;101299.47;;;16.90;100.00
22605;BME280;11469;49.024;8.246;2023-09-30T01:50:01;101301.97;;;16.95;100.00
22605;BME280;11469;49.024;8.246;2023-09-30T01:52:26;101296.69;;;16.94;100.00
22605;BME280;11469;49.024;8.246;2023-09-30T01:54:52;101291.41;;;16.92;100.00
22605;BME280;11469;49.024;8.246;2023-09-30T01:57:19;101288.69;;;16.99;100.00
22605;BME280;11469;49.024;8.246;2023-09-30T01:59:44;101287.88;;;16.99;100.00
22605;BME280;11469;49.024;8.246;2023-09-30T02:02:10;101290.47;;;17.14;100.00
22605;BME280;11469;49.024;8.246;2023-09-30T02:04:35;101292.34;;;17.33;100.00
22605;BME280;11469;49.024;8.246;2023-09-30T02:07:01;101280.78;;;17.15;100.00
22605;BME280;11469;49.024;8.246;2023-09-30T02:09:26;101277.59;;;17.20;100.00
22605;BME280;11469;49.024;8.246;2023-09-30T02:11:51;101284.28;;;17.05;100.00
22605;BME280;11469;49.024;8.246;2023-09-30T02:14:17;101291.53;;;17.03;100.00
22605;BME280;11469;49.024;8.246;2023-09-30T02:16:42;101299.19;;;16.99;100.00
22605;BME280;11469;49.024;8.246;2023-09-30T02:19:07;101289.44;;;16.96;100.00
22605;BME280;11469;49.024;8.246;2023-09-30T02:21:36;101285.75;;;16.92;100.00
22605;BME280;11469;49.024;8.246;2023-09-30T02:24:01;101287.72;;;16.88;100.00
22605;BME280;11469;49.024;8.246;2023-09-30T02:26:27;101285.31;;;16.90;100.00
22605;BME280;11469;49.024;8.246;2023-09-30T02:28:54;101285.28;;;16.86;100.00
22605;BME280;11469;49.024;8.246;2023-09-30T02:31:19;101307.44;;;16.81;100.00
22605;BME280;11469;49.024;8.246;2023-09-30T02:33:45;101298.44;;;16.75;100.00
22605;BME280;11469;49.024;8.246;2023-09-30T02:36:10;101298.78;;;16.70;100.00
22605;BME280;11469;49.024;8.246;2023-09-30T02:38:37;101287.84;;;16.69;100.00
22605;BME280;11469;49.024;8.246;2023-09-30T02:41:03;101289.34;;;16.63;100.00
22605;BME280;11469;49.024;8.246;2023-09-30T02:43:29;101289.66;;;16.57;100.00
22605;BME280;11469;49.024;8.246;2023-09-30T02:45:54;101299.31;;;16.53;100.00
22605;BME280;11469;49.024;8.246;2023-09-30T02:48:20;101301.75;;;16.54;100.00
22605;BME280;11469;49.024;8.246;2023-09-30T02:50:45;101294.06;;;16.55;100.00
22605;BME280;11469;49.024;8.246;2023-09-30T02:53:11;101296.50;;;16.53;100.00
22605;BME280;11469;49.024;8.246;2023-09-30T02:55:38;101302.09;;;16.49;100.00
22605;BME280;11469;49.024;8.246;2023-09-30T02:58:04;101298.81;;;16.47;100.00
22605;BME280;11469;49.024;8.246;2023-09-30T03:00:29;101301.22;;;16.45;100.00
22605;BME280;11469;49.024;8.246;2023-09-30T03:03:00;101313.72;;;16.44;100.00
22605;BME280;11469;49.024;8.246;2023-09-30T03:05:26;101317.69;;;16.40;100.00
22605;BME280;11469;49.024;8.246;2023-09-30T03:07:53;101319.66;;;16.36;100.00
22605;BME280;11469;49.024;8.246;2023-09-30T03:10:20;101327.56;;;16.26;100.00
22605;BME280;11469;49.024;8.246;2023-09-30T03:12:49;101321.03;;;16.22;100.00
22605;BME280;11469;49.024;8.246;2023-09-30T03:15:15;101321.34;;;16.17;100.00
22605;BME280;11469;49.024;8.246;2023-09-30T03:17:41;101312.56;;;16.22;100.00
22605;BME280;11469;49.024;8.246;2023-09-30T03:20:07;101312.88;;;16.17;100.00
22605;BME280;11469;49.024;8.246;2023-09-30T03:22:38;101301.88;;;16.12;100.00
22605;BME280;11469;49.024;8.246;2023-09-30T03:25:03;101305.84;;;16.08;100.00
22605;BME280;11469;49.024;8.246;2023-09-30T03:27:33;101303.41;;;16.06;100.00
22605;BME280;11469;49.024;8.246;2023-09-30T03:29:58;101286.84;;;16.08;100.00
22605;BME280;11469;49.024;8.246;2023-09-30T03:32:24;101298.59;;;16.10;100.00
22605;BME280;11469;49.024;8.246;2023-09-30T03:34:50;101299.41;;;16.11;100.00
22605;BME280;11469;49.024;8.246;2023-09-30T03:37:15;101310.78;;;16.14;100.00
22605;BME280;11469;49.024;8.246;2023-09-30T03:39:40;101322.53;;;16.16;100.00
22605;BME280;11469;49.024;8.246;2023-09-30T03:42:06;101309.59;;;16.15;100.00
22605;BME280;11469;49.024;8.246;2023-09-30T03:44:32;101314.44;;;16.15;100.00
22605;BME280;11469;49.024;8.246;2023-09-30T03:46:57;101308.41;;;16.16;100.00
22605;BME280;11469;49.024;8.246;2023-09-30T03:49:24;101314.44;;;16.15;100.00
22605;BME280;11469;49.024;8.246;2023-09-30T03:51:49;101317.22;;;16.11;100.00
22605;BME280;11469;49.024;8.246;2023-09-30T03:54:16;101315.25;;;16.15;100.00
22605;BME280;11469;49.024;8.246;2023-09-30T03:56:44;101318.59;;;16.21;100.00
22605;BME280;11469;49.024;8.246;2023-09-30T03:59:10;101333.03;;;16.16;100.00
22605;BME280;11469;49.024;8.246;2023-09-30T04:01:36;101326.84;;;16.07;100.00
22605;BME280;11469;49.024;8.246;2023-09-30T04:04:06;101320.75;;;16.05;100.00
22605;BME280;11469;49.024;8.246;2023-09-30T04:06:32;101324.41;;;16.05;100.00
22605;BME280;11469;49.024;8.246;2023-09-30T04:08:58;101325.59;;;16.04;100.00
22605;BME280;11469;49.024;8.246;2023-09-30T04:11:24;101335.25;;;16.03;100.00
22605;BME280;11469;49.024;8.246;2023-09-30T04:13:50;101341.38;;;16.05;100.00
22605;BME280;11469;49.024;8.246;2023-09-30T04:16:16;101336.09;;;16.04;100.00
22605;BME280;11469;49.024;8.246;2023-09-30T04:18:43;101336.47;;;16.02;100.00
22605;BME280;11469;49.024;8.246;2023-09-30T04:21:09;101339.22;;;15.99;100.00
22605;BME280;11469;49.024;8.246;2023-09-30T04:23:34;101339.84;;;16.11;100.00
22605;BME280;11469;49.024;8.246;2023-09-30T04:26:02;101328.97;;;16.13;100.00
22605;BME280;11469;49.024;8.246;2023-09-30T04:28:27;101338.19;;;16.10;100.00
22605;BME280;11469;49.024;8.246;2023-09-30T04:30:53;101343.09;;;16.13;100.00
22605;BME280;11469;49.024;8.246;2023-09-30T04:33:19;101344.28;;;16.12;100.00
22605;BME280;11469;49.024;8.246;2023-09-30T04:35:45;101339.72;;;16.04;100.00
22605;BME280;11469;49.024;8.246;2023-09-30T04:38:11;101330.38;;;16.00;100.00
22605;BME280;11469;49.024;8.246;2023-09-30T04:40:36;101346.88;;;15.98;100.00
22605;BME280;11469;49.024;8.246;2023-09-30T04:43:02;101349.34;;;16.00;100.00
22605;BME280;11469;49.024;8.246;2023-09-30T04:45:28;101346.06;;;15.98;100.00
22605;BME280;11469;49.024;8.246;2023-09-30T04:47:54;101344.44;;;15.97;100.00
22605;BME280;11469;49.024;8.246;2023-09-30T04:50:21;101348.38;;;15.92;100.00
22605;BME280;11469;49.024;8.246;2023-09-30T04:52:47;101350.31;;;15.88;100.00
22605;BME280;11469;49.024;8.246;2023-09-30T04:55:13;101355.97;;;15.88;100.00
22605;BME280;11469;49.024;8.246;2023-09-30T04:57:44;101350.69;;;15.86;100.00
22605;BME280;11469;49.024;8.246;2023-09-30T05:00:14;101348.25;;;15.85;100.00
22605;BME280;11469;49.024;8.246;2023-09-30T05:02:40;101356.72;;;15.85;100.00
22605;BME280;11469;49.024;8.246;2023-09-30T05:05:06;101347.81;;;15.83;100.00
22605;BME280;11469;49.024;8.246;2023-09-30T05:07:32;101349.81;;;15.82;100.00
22605;BME280;11469;49.024;8.246;2023-09-30T05:09:58;101346.03;;;15.75;100.00
22605;BME280;11469;49.024;8.246;2023-09-30T05:12:25;101347.66;;;15.76;100.00
22605;BME280;11469;49.024;8.246;2023-09-30T05:14:50;101339.19;;;15.76;100.00
22605;BME280;11469;49.024;8.246;2023-09-30T05:17:16;101335.91;;;15.74;100.00
22605;BME280;11469;49.024;8.246;2023-09-30T05:19:41;101351.25;;;15.73;100.00
22605;BME280;11469;49.024;8.246;2023-09-30T05:22:07;101354.81;;;15.70;100.00
22605;BME280;11469;49.024;8.246;2023-09-30T05:24:32;101352.72;;;15.67;100.00
22605;BME280;11469;49.024;8.246;2023-09-30T05:26:58;101344.63;;;15.65;100.00
22605;BME280;11469;49.024;8.246;2023-09-30T05:29:23;101363.97;;;15.63;100.00
22605;BME280;11469;49.024;8.246;2023-09-30T05:31:48;101359.88;;;15.60;100.00
22605;BME280;11469;49.024;8.246;2023-09-30T05:34:14;101364.84;;;15.48;100.00
22605;BME280;11469;49.024;8.246;2023-09-30T05:36:39;101361.06;;;15.40;100.00
22605;BME280;11469;49.024;8.246;2023-09-30T05:39:05;101356.16;;;15.37;100.00
22605;BME280;11469;49.024;8.246;2023-09-30T05:41:31;101356.06;;;15.34;100.00
22605;BME280;11469;49.024;8.246;2023-09-30T05:43:57;101367.22;;;15.26;100.00
22605;BME280;11469;49.024;8.246;2023-09-30T05:46:24;101365.06;;;15.20;100.00
22605;BME280;11469;49.024;8.246;2023-09-30T05:48:50;101370.97;;;15.15;100.00
22605;BME280;11469;49.024;8.246;2023-09-30T05:51:15;101384.72;;;15.16;100.00
22605;BME280;11469;49.024;8.246;2023-09-30T05:53:41;101383.09;;;15.15;100.00
22605;BME280;11469;49.024;8.246;2023-09-30T05:56:07;101387.09;;;15.14;100.00
22605;BME280;11469;49.024;8.246;2023-09-30T05:58:33;101406.81;;;15.11;100.00
22605;BME280;11469;49.024;8.246;2023-09-30T06:00:58;101406.41;;;15.12;100.00
22605;BME280;11469;49.024;8.246;2023-09-30T06:03:26;101410.38;;;15.08;100.00
22605;BME280;11469;49.024;8.246;2023-09-30T06:05:54;101408.00;;;15.10;100.00
22605;BME280;11469;49.024;8.246;2023-09-30T06:08:21;101407.25;;;15.13;100.00
22605;BME280;11469;49.024;8.246;2023-09-30T06:10:46;101403.84;;;15.23;100.00
22605;BME280;11469;49.024;8.246;2023-09-30T06:13:12;101414.69;;;15.21;100.00
22605;BME280;11469;49.024;8.246;2023-09-30T06:15:40;101418.69;;;15.20;100.00
22605;BME280;11469;49.024;8.246;2023-09-30T06:18:06;101416.34;;;15.22;100.00
22605;BME280;11469;49.024;8.246;2023-09-30T06:20:31;101417.56;;;15.40;100.00
22605;BME280;11469;49.024;8.246;2023-09-30T06:22:58;101409.72;;;15.34;100.00
22605;BME280;11469;49.024;8.246;2023-09-30T06:25:26;101411.81;;;15.37;100.00
22605;BME280;11469;49.024;8.246;2023-09-30T06:27:53;101412.34;;;15.42;100.00
22605;BME280;11469;49.024;8.246;2023-09-30T06:30:22;101415.69;;;15.48;100.00
22605;BME280;11469;49.024;8.246;2023-09-30T06:32:57;101412.22;;;15.54;100.00
22605;BME280;11469;49.024;8.246;2023-09-30T06:35:24;101411.19;;;15.63;100.00
22605;BME280;11469;49.024;8.246;2023-09-30T06:37:49;101415.34;;;15.69;100.00
22605;BME280;11469;49.024;8.246;2023-09-30T06:40:15;101417.44;;;15.91;100.00
22605;BME280;11469;49.024;8.246;2023-09-30T06:42:40;101412.16;;;15.89;100.00
22605;BME280;11469;49.024;8.246;2023-09-30T06:45:07;101413.09;;;15.97;100.00
22605;BME280;11469;49.024;8.246;2023-09-30T06:47:33;101399.34;;;15.96;100.00
22605;BME280;11469;49.024;8.246;2023-09-30T06:50:03;101392.50;;;15.97;100.00
22605;BME280;11469;49.024;8.246;2023-09-30T06:52:38;101400.91;;;16.16;100.00
22605;BME280;11469;49.024;8.246;2023-09-30T06:55:04;101408.50;;;16.12;100.00
22605;BME280;11469;49.024;8.246;2023-09-30T06:57:32;101416.19;;;16.11;100.00
22605;BME280;11469;49.024;8.246;2023-09-30T06:59:57;101427.13;;;16.13;100.00
22605;BME280;11469;49.024;8.246;2023-09-30T07:02:23;101432.03;;;16.16;100.00
22605;BME280;11469;49.024;8.246;2023-09-30T07:04:49;101432.91;;;16.20;100.00
22605;BME280;11469;49.024;8.246;2023-09-30T07:07:14;101448.47;;;16.30;100.00
22605;BME280;11469;49.024;8.246;2023-09-30T07:09:40;101452.63;;;16.36;100.00
22605;BME280;11469;49.024;8.246;2023-09-30T07:12:06;101444.44;;;16.53;100.00
22605;BME280;11469;49.024;8.246;2023-09-30T07:14:31;101442.97;;;16.63;100.00
22605;BME280;11469;49.024;8.246;2023-09-30T07:16:56;101437.47;;;16.70;100.00
22605;BME280;11469;49.024;8.246;2023-09-30T07:19:22;101439.66;;;16.80;100.00
22605;BME280;11469;49.024;8.246;2023-09-30T07:21:48;101447.97;;;16.70;99.23
22605;BME280;11469;49.024;8.246;2023-09-30T07:24:13;101452.06;;;16.72;98.08
22605;BME280;11469;49.024;8.246;2023-09-30T07:26:40;101459.25;;;16.66;98.33
22605;BME280;11469;49.024;8.246;2023-09-30T07:29:05;101456.31;;;16.63;97.41
22605;BME280;11469;49.024;8.246;2023-09-30T07:31:35;101465.19;;;16.61;98.12
22605;BME280;11469;49.024;8.246;2023-09-30T07:34:00;101459.63;;;16.65;98.42
22605;BME280;11469;49.024;8.246;2023-09-30T07:36:26;101462.13;;;16.47;99.40
22605;BME280;11469;49.024;8.246;2023-09-30T07:38:51;101461.16;;;16.62;100.00
22605;BME280;11469;49.024;8.246;2023-09-30T07:41:18;101462.56;;;16.72;99.77
22605;BME280;11469;49.024;8.246;2023-09-30T07:43:43;101466.22;;;16.72;99.54
22605;BME280;11469;49.024;8.246;2023-09-30T07:46:09;101458.53;;;16.73;99.19
22605;BME280;11469;49.024;8.246;2023-09-30T07:48:34;101457.84;;;16.79;99.41
22605;BME280;11469;49.024;8.246;2023-09-30T07:51:00;101464.53;;;16.90;99.62
22605;BME280;11469;49.024;8.246;2023-09-30T07:53:26;101467.56;;;17.05;99.32
22605;BME280;11469;49.024;8.246;2023-09-30T07:55:52;101464.47;;;17.13;97.75
22605;BME280;11469;49.024;8.246;2023-09-30T07:58:19;101470.22;;;17.20;97.55
22605;BME280;11469;49.024;8.246;2023-09-30T08:00:45;101460.59;;;17.25;96.70
22605;BME280;11469;49.024;8.246;2023-09-30T08:03:11;101463.03;;;17.27;96.81
22605;BME280;11469;49.024;8.246;2023-09-30T08:05:37;101452.97;;;17.29;96.86
22605;BME280;11469;49.024;8.246;2023-09-30T08:08:03;101457.91;;;17.36;96.08
22605;BME280;11469;49.024;8.246;2023-09-30T08:10:29;101455.69;;;17.48;95.56
22605;BME280;11469;49.024;8.246;2023-09-30T08:12:57;101470.50;;;17.38;95.51
22605;BME280;11469;49.024;8.246;2023-09-30T08:15:24;101465.38;;;17.47;95.45
22605;BME280;11469;49.024;8.246;2023-09-30T08:17:49;101461.75;;;17.50;95.32
22605;BME280;11469;49.024;8.246;2023-09-30T08:20:15;101439.81;;;17.44;95.39
22605;BME280;11469;49.024;8.246;2023-09-30T08:22:40;101438.38;;;17.57;94.63
22605;BME280;11469;49.024;8.246;2023-09-30T08:25:06;101441.56;;;17.55;94.19
22605;BME280;11469;49.024;8.246;2023-09-30T08:27:32;101454.94;;;17.55;93.83
22605;BME280;11469;49.024;8.246;2023-09-30T08:29:58;101443.25;;;17.60;94.43
22605;BME280;11469;49.024;8.246;2023-09-30T08:32:23;101451.94;;;17.71;93.22
22605;BME280;11469;49.024;8.246;2023-09-30T08:34:48;101448.06;;;17.82;92.25
22605;BME280;11469;49.024;8.246;2023-09-30T08:37:14;101451.03;;;17.97;92.06
22605;BME280;11469;49.024;8.246;2023-09-30T08:39:40;101461.13;;;17.90;91.16
22605;BME280;11469;49.024;8.246;2023-09-30T08:42:10;101453.03;;;17.93;92.18
22605;BME280;11469;49.024;8.246;2023-09-30T08:44:39;101472.66;;;17.75;92.52
22605;BME280;11469;49.024;8.246;2023-09-30T08:47:08;101475.69;;;17.89;92.20
22605;BME280;11469;49.024;8.246;2023-09-30T08:49:37;101473.28;;;17.91;91.44
22605;BME280;11469;49.024;8.246;2023-09-30T08:52:05;101476.34;;;17.79;92.32
22605;BME280;11469;49.024;8.246;2023-09-30T08:54:31;101481.41;;;17.93;92.34
22605;BME280;11469;49.024;8.246;2023-09-30T08:56:57;101478.75;;;18.10;91.01
22605;BME280;11469;49.024;8.246;2023-09-30T08:59:25;101475.19;;;18.17;90.59
22605;BME280;11469;49.024;8.246;2023-09-30T09:01:51;101477.56;;;18.11;90.41
22605;BME280;11469;49.024;8.246;2023-09-30T09:04:17;101469.56;;;18.20;90.41
22605;BME280;11469;49.024;8.246;2023-09-30T09:06:43;101459.09;;;18.28;90.56
22605;BME280;11469;49.024;8.246;2023-09-30T09:09:16;101456.00;;;18.40;89.20
22605;BME280;11469;49.024;8.246;2023-09-30T09:11:44;101468.28;;;18.55;88.64
22605;BME280;11469;49.024;8.246;2023-09-30T09:14:09;101458.59;;;18.60;87.47
22605;BME280;11469;49.024;8.246;2023-09-30T09:16:36;101448.19;;;18.71;87.34
22605;BME280;11469;49.024;8.246;2023-09-30T09:19:22;101457.44;;;18.64;86.20
22605;BME280;11469;49.024;8.246;2023-09-30T09:21:58;101458.84;;;18.44;86.56
22605;BME280;11469;49.024;8.246;2023-09-30T09:24:35;101454.44;;;18.50;86.15
22605;BME280;11469;49.024;8.246;2023-09-30T09:27:08;101443.16;;;18.57;85.78
22605;BME280;11469;49.024;8.246;2023-09-30T09:29:35;101446.56;;;18.29;85.48
22605;BME280;11469;49.024;8.246;2023-09-30T09:32:14;101453.75;;;18.60;85.94
22605;BME280;11469;49.024;8.246;2023-09-30T09:34:41;101443.59;;;18.59;85.31
22605;BME280;11469;49.024;8.246;2023-09-30T09:37:17;101448.72;;;18.46;85.84
22605;BME280;11469;49.024;8.246;2023-09-30T09:39:50;101442.44;;;18.64;86.42
22605;BME280;11469;49.024;8.246;2023-09-30T09:42:29;101451.56;;;18.90;84.17
22605;BME280;11469;49.024;8.246;2023-09-30T09:45:00;101443.97;;;19.02;83.38
22605;BME280;11469;49.024;8.246;2023-09-30T09:47:25;101455.41;;;19.12;83.19
22605;BME280;11469;49.024;8.246;2023-09-30T09:49:52;101447.38;;;19.25;83.26
22605;BME280;11469;49.024;8.246;2023-09-30T09:52:19;101458.16;;;19.02;82.74
22605;BME280;11469;49.024;8.246;2023-09-30T09:54:45;101459.31;;;18.90;83.01
22605;BME280;11469;49.024;8.246;2023-09-30T09:57:12;101458.91;;;18.95;80.70
22605;BME280;11469;49.024;8.246;2023-09-30T09:59:38;101452.53;;;19.09;81.39
22605;BME280;11469;49.024;8.246;2023-09-30T10:02:10;101445.25;;;19.11;80.62
22605;BME280;11469;49.024;8.246;2023-09-30T10:04:37;101449.34;;;19.17;79.45
22605;BME280;11469;49.024;8.246;2023-09-30T10:07:04;101446.16;;;19.22;80.03
22605;BME280;11469;49.024;8.246;2023-09-30T10:09:33;101441.34;;;19.34;77.93
22605;BME280;11469;49.024;8.246;2023-09-30T10:12:01;101437.28;;;19.35;78.51
22605;BME280;11469;49.024;8.246;2023-09-30T10:14:31;101447.34;;;19.18;80.10
22605;BME280;11469;49.024;8.246;2023-09-30T10:16:58;101434.72;;;19.15;80.80
22605;BME280;11469;49.024;8.246;2023-09-30T10:19:23;101431.91;;;19.19;80.02
22605;BME280;11469;49.024;8.246;2023-09-30T10:24:47;101438.69;;;19.62;80.49
22605;BME280;11469;49.024;8.246;2023-09-30T10:35:21;101423.31;;;19.88;77.83
22605;BME280;11469;49.024;8.246;2023-09-30T10:40:48;101418.50;;;20.03;75.71
22605;BME280;11469;49.024;8.246;2023-09-30T10:43:33;101422.09;;;19.78;76.05
22605;BME280;11469;49.024;8.246;2023-09-30T10:45:59;101425.34;;;19.77;76.74
22605;BME280;11469;49.024;8.246;2023-09-30T10:50:52;101409.91;;;19.85;76.47
22605;BME280;11469;49.024;8.246;2023-09-30T10:53:18;101411.59;;;20.00;76.61
22605;BME280;11469;49.024;8.246;2023-09-30T10:55:53;101409.63;;;20.22;75.46
22605;BME280;11469;49.024;8.246;2023-09-30T10:58:20;101410.84;;;20.25;75.42
22605;BME280;11469;49.024;8.246;2023-09-30T11:00:53;101404.69;;;20.05;75.32
22605;BME280;11469;49.024;8.246;2023-09-30T11:03:20;101402.28;;;20.17;76.17
22605;BME280;11469;49.024;8.246;2023-09-30T11:05:51;101401.88;;;20.19;74.06
22605;BME280;11469;49.024;8.246;2023-09-30T11:08:21;101408.41;;;20.30;73.82
22605;BME280;11469;49.024;8.246;2023-09-30T11:10:50;101405.59;;;20.48;74.05
22605;BME280;11469;49.024;8.246;2023-09-30T11:13:20;101390.13;;;20.49;71.40
22605;BME280;11469;49.024;8.246;2023-09-30T11:15:46;101391.75;;;20.39;73.26
22605;BME280;11469;49.024;8.246;2023-09-30T11:18:16;101395.00;;;20.38;72.88
22605;BME280;11469;49.024;8.246;2023-09-30T11:20:43;101400.31;;;20.46;72.75
22605;BME280;11469;49.024;8.246;2023-09-30T11:23:10;101396.66;;;20.64;72.83
22605;BME280;11469;49.024;8.246;2023-09-30T11:25:37;101400.31;;;20.71;72.57
22605;BME280;11469;49.024;8.246;2023-09-30T11:28:15;101395.84;;;20.63;70.83
22605;BME280;11469;49.024;8.246;2023-09-30T11:30:57;101394.22;;;20.69;69.76
22605;BME280;11469;49.024;8.246;2023-09-30T11:33:23;101399.09;;;20.72;70.23
22605;BME280;11469;49.024;8.246;2023-09-30T11:35:57;101402.31;;;20.81;68.79
22605;BME280;11469;49.024;8.246;2023-09-30T11:38:24;101399.91;;;20.76;67.74
22605;BME280;11469;49.024;8.246;2023-09-30T11:41:02;101409.69;;;20.72;68.82
22605;BME280;11469;49.024;8.246;2023-09-30T11:43:30;101404.81;;;20.79;68.96
22605;BME280;11469;49.024;8.246;2023-09-30T11:48:31;101398.66;;;20.81;68.92
22605;BME280;11469;49.024;8.246;2023-09-30T11:50:58;101395.81;;;20.81;67.70
22605;BME280;11469;49.024;8.246;2023-09-30T11:53:25;101397.06;;;20.69;67.02
22605;BME280;11469;49.024;8.246;2023-09-30T11:55:51;101398.66;;;20.95;66.14
22605;BME280;11469;49.024;8.246;2023-09-30T11:58:20;101395.00;;;20.87;65.01
22605;BME280;11469;49.024;8.246;2023-09-30T12:00:45;101397.84;;;20.87;64.96
22605;BME280;11469;49.024;8.246;2023-09-30T12:03:11;101390.94;;;20.96;64.25
22605;BME280;11469;49.024;8.246;2023-09-30T12:05:36;101390.09;;;21.02;63.54
22605;BME280;11469;49.024;8.246;2023-09-30T12:08:02;101391.31;;;21.12;65.97
22605;BME280;11469;49.024;8.246;2023-09-30T12:10:27;101386.84;;;20.90;66.04
22605;BME280;11469;49.024;8.246;2023-09-30T12:12:53;101396.22;;;21.04;64.78
22605;BME280;11469;49.024;8.246;2023-09-30T12:15:18;101389.69;;;21.11;64.85
22605;BME280;11469;49.024;8.246;2023-09-30T12:17:47;101379.91;;;21.15;65.03
22605;BME280;11469;49.024;8.246;2023-09-30T12:20:12;101380.72;;;21.09;64.20
22605;BME280;11469;49.024;8.246;2023-09-30T12:22:41;101384.38;;;21.20;64.48
22605;BME280;11469;49.024;8.246;2023-09-30T12:25:06;101378.28;;;21.00;63.51
22605;BME280;11469;49.024;8.246;2023-09-30T12:27:33;101377.06;;;21.05;63.63
22605;BME280;11469;49.024;8.246;2023-09-30T12:29:59;101367.66;;;21.33;63.26
22605;BME280;11469;49.024;8.246;2023-09-30T12:32:25;101367.59;;;21.47;63.13
22605;BME280;11469;49.024;8.246;2023-09-30T12:34:52;101362.31;;;21.45;61.22
22605;BME280;11469;49.024;8.246;2023-09-30T12:37:18;101371.22;;;21.62;60.94
22605;BME280;11469;49.024;8.246;2023-09-30T12:39:44;101363.13;;;21.46;60.47
22605;BME280;11469;49.024;8.246;2023-09-30T12:42:10;101365.66;;;21.23;61.31
22605;BME280;11469;49.024;8.246;2023-09-30T12:44:38;101356.69;;;21.24;61.98
22605;BME280;11469;49.024;8.246;2023-09-30T12:49:30;101350.16;;;21.27;60.33
22605;BME280;11469;49.024;8.246;2023-09-30T12:51:56;101350.94;;;21.31;59.78
22605;BME280;11469;49.024;8.246;2023-09-30T12:54:23;101349.34;;;21.16;59.80
22605;BME280;11469;49.024;8.246;2023-09-30T12:56:49;101342.81;;;21.30;60.38
22605;BME280;11469;49.024;8.246;2023-09-30T12:59:16;101337.47;;;21.42;58.65
22605;BME280;11469;49.024;8.246;2023-09-30T13:01:43;101332.94;;;21.52;57.16
22605;BME280;11469;49.024;8.246;2023-09-30T13:04:08;101328.84;;;21.57;55.26